Almudaina Dos — 5BCV4 — position and weather

sailwx.info

Track history (hours):
 
Tides and Currents Weather Stations Pressure Air Temp Water Temp Dewpoint Dewpoint Depression Visibility Wind Speed Wind Dir Waves Ship Positions

Almudaina Dos

Last reported at 2017-Sep-26 01:12 UTC. Time now 2017-Nov-20 17:27 UTC.
Position N 37°16' W 001°03'.
Warning: this ship's position is 55 days out of date.

Length 100 m; draft 2.5 m.

Type: Ship. MMSI: 212235000.

Date/timePositionNaut miles runAvg speedWind from/ knotsBaromVisibWave heightAir tempDewpointWater temp
2017-Sep-26 01:12N 37°16' W 001°03'524.5
2017-Sep-26 01:00N 37°19' W 000°57'1224.3
2017-Sep-26 00:30N 37°27' W 000°46'1224.4
2017-Sep-26 00:00N 37°34' W 000°34'1224.4
2017-Sep-25 23:30N 37°45' W 000°27'1223.9
2017-Sep-25 23:00N 37°55' W 000°19'1223.7
2017-Sep-25 22:30N 38°05' W 000°10'2324.0
2017-Sep-25 21:33N 38°24' E 000°06'124.1
2017-Sep-25 21:30N 38°25' E 000°07'1523.9
2017-Sep-25 20:52N 38°38' E 000°18'822.1
2017-Sep-25 20:31N 38°45' E 000°23'20 0.7
2017-Sep-24 17:44N 38°59' E 000°05'834.0
2017-Sep-24 17:30N 38°57' E 000°15'1632.6
2017-Sep-24 17:01N 38°53' E 000°35'1732.6
2017-Sep-24 16:30N 38°57' E 000°56'17 9.4
2017-Sep-24 14:39N 38°59' E 001°18'312.2
2017-Sep-24 14:24N 38°60' E 001°14'2033.8
2017-Sep-24 13:49N 38°59' E 000°49'2133.5
2017-Sep-24 13:12N 38°59' E 000°22'633.2
2017-Sep-24 13:00N 38°59' E 000°14'  
2017-Sep-21 17:44N 39°00' W 000°02'1533.3
2017-Sep-21 17:17N 39°01' E 000°17'1333.1
2017-Sep-21 16:54N 39°00' E 000°34'2333.1
2017-Sep-21 16:13N 39°00' E 001°03'733.9
2017-Sep-21 16:00N 39°00' E 001°12'1 0.8
2017-Sep-21 14:19N 39°00' E 001°10'  
2017-Sep-18 17:11N 38°59' E 000°25'1232.9
2017-Sep-18 16:49N 38°58' E 000°41'1333.2
2017-Sep-18 16:26N 38°59' E 000°57'13 0.3
2017-Sep-16 18:26N 39°00' E 001°13'1 1.0
2017-Sep-16 16:55N 39°01' E 001°15'1 0.5
2017-Sep-16 14:06N 39°02' E 001°15'1 4.4
2017-Sep-16 13:53N 39°01' E 001°15'  
Track history (hours):
 
Tides and Currents Weather Stations Pressure Air Temp Water Temp Dewpoint Dewpoint Depression Visibility Wind Speed Wind Dir Waves Ship Positions

Almudaina Dos

Last reported at 2017-Sep-26 01:12 UTC. Time now 2017-Nov-20 17:27 UTC.
Position N 37°16' W 001°03'.
Warning: this ship's position is 55 days out of date.

Length 100 m; draft 2.5 m.

Type: Ship. MMSI: 212235000.

Date/timePositionNaut miles runAvg speedWind from/ knotsBaromVisibWave heightAir tempDewpointWater temp
2017-Sep-26 01:12N 37°16' W 001°03'524.5
2017-Sep-26 01:00N 37°19' W 000°57'1224.3
2017-Sep-26 00:30N 37°27' W 000°46'1224.4
2017-Sep-26 00:00N 37°34' W 000°34'1224.4
2017-Sep-25 23:30N 37°45' W 000°27'1223.9
2017-Sep-25 23:00N 37°55' W 000°19'1223.7
2017-Sep-25 22:30N 38°05' W 000°10'2324.0
2017-Sep-25 21:33N 38°24' E 000°06'124.1
2017-Sep-25 21:30N 38°25' E 000°07'1523.9
2017-Sep-25 20:52N 38°38' E 000°18'822.1
2017-Sep-25 20:31N 38°45' E 000°23'20 0.7
2017-Sep-24 17:44N 38°59' E 000°05'834.0
2017-Sep-24 17:30N 38°57' E 000°15'1632.6
2017-Sep-24 17:01N 38°53' E 000°35'1732.6
2017-Sep-24 16:30N 38°57' E 000°56'17 9.4
2017-Sep-24 14:39N 38°59' E 001°18'312.2
2017-Sep-24 14:24N 38°60' E 001°14'2033.8
2017-Sep-24 13:49N 38°59' E 000°49'2133.5
2017-Sep-24 13:12N 38°59' E 000°22'633.2
2017-Sep-24 13:00N 38°59' E 000°14'  
2017-Sep-21 17:44N 39°00' W 000°02'1533.3
2017-Sep-21 17:17N 39°01' E 000°17'1333.1
2017-Sep-21 16:54N 39°00' E 000°34'2333.1
2017-Sep-21 16:13N 39°00' E 001°03'733.9
2017-Sep-21 16:00N 39°00' E 001°12'1 0.8
2017-Sep-21 14:19N 39°00' E 001°10'  
2017-Sep-18 17:11N 38°59' E 000°25'1232.9
2017-Sep-18 16:49N 38°58' E 000°41'1333.2
2017-Sep-18 16:26N 38°59' E 000°57'13 0.3
2017-Sep-16 18:26N 39°00' E 001°13'1 1.0
2017-Sep-16 16:55N 39°01' E 001°15'1 0.5
2017-Sep-16 14:06N 39°02' E 001°15'1 4.4
2017-Sep-16 13:53N 39°01' E 001°15'  

Dump ship's entire track history